Time;durP1;ratioP1;P1;durP2;ratioP2;P2;SDS_P1;SDS_P2;PMS_P1;PMS_P2;Temp;Humidity;BMP_temperature;BMP_pressure;BME280_temperature;BME280_humidity;BME280_pressure;Samples;Min_cycle;Max_cycle;Signal;HPM_P1;HPM_P2
2022/04/13 00:00:28;;;;;;;6.93;3.15;;;11.20;50.40;;;;;;5026700;28;20030;-72
2022/04/13 00:02:54;;;;;;;6.40;2.88;;;11.00;50.60;;;;;;5030287;28;20036;-72
2022/04/13 00:05:20;;;;;;;6.03;3.00;;;11.00;51.10;;;;;;5030612;28;20542;-72
2022/04/13 00:07:45;;;;;;;7.78;2.97;;;11.10;50.70;;;;;;5025854;28;20026;-72
2022/04/13 00:10:11;;;;;;;5.32;2.83;;;11.10;50.70;;;;;;5029375;28;20385;-72
2022/04/13 00:12:37;;;;;;;8.88;3.05;;;11.10;50.40;;;;;;5030656;28;20156;-72
2022/04/13 00:15:04;;;;;;;5.40;3.10;;;11.10;50.90;;;;;;5031063;28;20227;-72
2022/04/13 00:17:30;;;;;;;6.05;2.63;;;11.00;51.00;;;;;;5017891;28;20045;-72
2022/04/13 00:19:56;;;;;;;7.93;2.92;;;10.90;51.80;;;;;;5030796;28;20419;-72
2022/04/13 00:22:22;;;;;;;6.25;3.47;;;10.90;51.80;;;;;;5030032;28;20032;-72
2022/04/13 00:24:47;;;;;;;5.28;2.60;;;10.80;51.80;;;;;;5030091;28;20041;-72
2022/04/13 00:27:13;;;;;;;5.50;3.33;;;10.70;52.50;;;;;;5029308;28;20514;-72
2022/04/13 00:29:38;;;;;;;7.75;3.70;;;10.70;52.50;;;;;;5030439;28;20047;-72
2022/04/13 00:32:05;;;;;;;6.70;3.40;;;10.60;52.70;;;;;;5030495;28;20037;-72
2022/04/13 00:34:31;;;;;;;8.20;3.10;;;10.70;52.70;;;;;;5028519;28;20065;-72
2022/04/13 00:36:57;;;;;;;7.40;3.55;;;10.60;53.30;;;;;;5030279;28;20431;-72
2022/04/13 00:39:23;;;;;;;5.65;3.13;;;10.60;53.10;;;;;;5030725;28;20025;-72
2022/04/13 00:41:59;;;;;;;6.50;3.38;;;10.60;53.10;;;;;;5030202;28;20057;-72
2022/04/13 00:44:29;;;;;;;6.47;3.55;;;10.60;53.20;;;;;;5021742;28;20045;-72
2022/04/13 00:46:56;;;;;;;6.03;3.43;;;10.60;53.70;;;;;;5030559;28;20033;-72
2022/04/13 00:49:23;;;;;;;7.68;3.42;;;10.50;54.00;;;;;;5029391;28;20448;-72
2022/04/13 00:51:49;;;;;;;8.80;3.35;;;10.50;53.70;;;;;;5029594;28;20022;-72
2022/04/13 00:54:18;;;;;;;8.20;3.53;;;10.50;53.60;;;;;;5030630;28;20025;-71
2022/04/13 00:56:45;;;;;;;7.03;3.42;;;10.40;54.30;;;;;;5030187;28;20030;-72
2022/04/13 00:59:13;;;;;;;6.40;3.15;;;10.50;53.80;;;;;;5029147;28;20142;-72
2022/04/13 01:01:41;;;;;;;6.82;3.40;;;10.60;53.80;;;;;;5031161;28;20076;-72
2022/04/13 01:04:11;;;;;;;6.80;3.47;;;10.50;54.00;;;;;;5033207;28;20030;-72
2022/04/13 01:06:38;;;;;;;5.38;2.92;;;10.50;54.20;;;;;;5025604;28;20068;-71
2022/04/13 01:09:04;;;;;;;7.07;3.25;;;10.50;54.20;;;;;;5032208;28;20083;-72
2022/04/13 01:11:30;;;;;;;7.35;3.75;;;10.60;54.10;;;;;;5034039;28;20362;-71
2022/04/13 01:13:57;;;;;;;6.65;3.65;;;10.60;54.30;;;;;;5033922;28;20032;-72
2022/04/13 01:16:26;;;;;;;7.18;3.28;;;10.50;54.50;;;;;;5028987;28;20430;-73
2022/04/13 01:18:53;;;;;;;6.05;3.15;;;10.50;54.70;;;;;;5029299;28;20025;-73
2022/04/13 01:21:20;;;;;;;7.93;3.72;;;10.50;54.80;;;;;;5032823;28;20108;-73
2022/04/13 01:23:50;;;;;;;9.05;3.80;;;10.40;55.70;;;;;;5030802;28;20030;-73
2022/04/13 01:26:15;;;;;;;7.60;4.00;;;10.40;55.60;;;;;;5033641;28;20032;-73
2022/04/13 01:28:41;;;;;;;7.30;3.63;;;10.40;55.40;;;;;;5033564;28;20038;-73
2022/04/13 01:31:06;;;;;;;7.05;3.60;;;10.40;55.50;;;;;;5033251;28;20029;-73
2022/04/13 01:33:33;;;;;;;9.48;3.92;;;10.40;55.60;;;;;;5027085;28;20445;-71
2022/04/13 01:36:03;;;;;;;6.22;3.35;;;10.40;55.40;;;;;;5019881;28;20044;-73
2022/04/13 01:38:29;;;;;;;8.23;3.63;;;10.30;56.00;;;;;;5033280;28;20112;-70
2022/04/13 01:40:56;;;;;;;8.18;4.00;;;10.30;55.90;;;;;;5028895;28;20157;-70
2022/04/13 01:43:22;;;;;;;6.85;3.63;;;10.30;56.10;;;;;;5027400;28;20057;-72
2022/04/13 01:45:47;;;;;;;6.85;3.70;;;10.20;56.30;;;;;;5031702;28;20037;-70
2022/04/13 01:48:13;;;;;;;6.75;4.03;;;10.30;55.50;;;;;;5032656;28;20041;-72
2022/04/13 01:50:38;;;;;;;6.78;3.47;;;10.30;55.80;;;;;;5022677;28;20083;-70
2022/04/13 01:53:04;;;;;;;7.85;3.78;;;10.30;55.90;;;;;;5033082;28;20489;-70
2022/04/13 01:55:30;;;;;;;9.05;3.60;;;10.30;56.30;;;;;;5032924;28;20108;-70
2022/04/13 01:57:55;;;;;;;8.82;4.32;;;10.20;56.90;;;;;;5028538;28;20061;-70
2022/04/13 02:00:21;;;;;;;8.73;3.78;;;10.20;56.40;;;;;;5032055;28;20076;-70
2022/04/13 02:02:46;;;;;;;8.88;4.07;;;10.20;56.30;;;;;;5032236;28;20064;-71
2022/04/13 02:05:12;;;;;;;7.07;3.83;;;10.30;56.00;;;;;;5030893;28;20037;-73
2022/04/13 02:07:38;;;;;;;7.72;3.75;;;10.30;55.70;;;;;;5030633;28;20044;-71
2022/04/13 02:10:05;;;;;;;7.22;3.70;;;10.40;55.80;;;;;;5032365;28;20029;-71
2022/04/13 02:12:30;;;;;;;10.45;3.67;;;10.30;55.80;;;;;;5033010;28;20026;-71
2022/04/13 02:14:56;;;;;;;8.23;4.05;;;10.30;56.50;;;;;;5030957;28;20227;-71
2022/04/13 02:17:21;;;;;;;7.05;4.07;;;10.30;55.80;;;;;;5032117;28;20029;-71
2022/04/13 02:19:47;;;;;;;7.60;3.85;;;10.40;55.90;;;;;;5031130;28;20561;-71
2022/04/13 02:22:13;;;;;;;9.40;4.15;;;10.40;55.80;;;;;;5030757;28;20032;-71
2022/04/13 02:24:39;;;;;;;7.40;4.22;;;10.40;55.70;;;;;;5031345;28;20447;-71
2022/04/13 02:27:07;;;;;;;9.13;4.28;;;10.50;55.70;;;;;;5031940;28;20057;-71
2022/04/13 02:29:34;;;;;;;8.25;4.45;;;10.50;55.60;;;;;;5032228;28;20108;-71
2022/04/13 02:32:01;;;;;;;9.52;3.80;;;10.40;56.00;;;;;;5026462;28;20556;-71
2022/04/13 02:34:26;;;;;;;7.93;4.05;;;10.50;55.60;;;;;;5030239;28;20469;-71
2022/04/13 02:36:52;;;;;;;7.78;4.28;;;10.40;56.10;;;;;;5032005;28;20037;-71
2022/04/13 02:39:17;;;;;;;10.38;4.63;;;10.40;56.60;;;;;;5032186;28;20108;-71
2022/04/13 02:41:43;;;;;;;8.35;3.90;;;10.40;56.30;;;;;;5027586;28;20034;-70
2022/04/13 02:44:08;;;;;;;9.93;4.20;;;10.40;56.60;;;;;;5029549;28;20049;-71
2022/04/13 02:46:34;;;;;;;8.02;4.20;;;10.40;56.30;;;;;;5029985;28;20683;-70
2022/04/13 02:48:59;;;;;;;10.20;4.43;;;10.40;56.40;;;;;;5026156;28;20034;-71
2022/04/13 02:51:25;;;;;;;10.60;4.63;;;10.30;56.60;;;;;;5026661;28;20374;-71
2022/04/13 02:53:50;;;;;;;9.05;4.45;;;10.30;56.60;;;;;;5030823;28;20461;-71
2022/04/13 02:56:17;;;;;;;9.45;4.22;;;10.30;56.60;;;;;;5031827;28;20041;-71
2022/04/13 02:58:42;;;;;;;6.90;3.92;;;10.30;56.70;;;;;;5031165;28;20493;-71
2022/04/13 03:01:08;;;;;;;9.13;4.30;;;10.30;56.60;;;;;;5029652;28;20196;-71
2022/04/13 03:03:34;;;;;;;9.52;4.53;;;10.30;57.00;;;;;;5029362;28;20120;-71
2022/04/13 03:05:59;;;;;;;9.10;4.43;;;10.20;57.60;;;;;;5034540;28;20030;-71
2022/04/13 03:08:25;;;;;;;9.75;4.40;;;10.20;57.40;;;;;;5032046;28;20380;-71
2022/04/13 03:10:51;;;;;;;12.48;4.50;;;10.10;57.70;;;;;;5031272;28;20033;-70
2022/04/13 03:13:17;;;;;;;8.38;4.60;;;10.30;57.30;;;;;;5031583;28;20021;-71
2022/04/13 03:15:42;;;;;;;9.10;4.40;;;10.10;57.80;;;;;;5029509;28;20067;-71
2022/04/13 03:18:08;;;;;;;7.45;4.43;;;10.10;57.60;;;;;;5026053;28;20488;-71
2022/04/13 03:20:34;;;;;;;10.55;4.30;;;10.10;58.00;;;;;;5031036;28;20461;-71
2022/04/13 03:23:01;;;;;;;8.40;4.30;;;10.00;58.30;;;;;;5025310;28;20452;-71
2022/04/13 03:25:27;;;;;;;11.35;4.93;;;10.00;58.60;;;;;;5025869;28;20034;-71
2022/04/13 03:27:52;;;;;;;8.52;4.25;;;10.00;58.20;;;;;;5031458;28;20091;-71
2022/04/13 03:30:18;;;;;;;8.02;4.30;;;10.00;58.50;;;;;;5030711;28;20100;-71
2022/04/13 03:32:44;;;;;;;10.82;4.35;;;9.90;58.40;;;;;;5030855;28;20033;-71
2022/04/13 03:35:10;;;;;;;8.60;4.68;;;9.90;58.50;;;;;;5029685;28;20036;-72
2022/04/13 03:37:37;;;;;;;8.02;4.38;;;9.80;59.10;;;;;;5029768;28;20393;-71
2022/04/13 03:40:03;;;;;;;12.38;4.72;;;9.70;59.40;;;;;;5025973;28;20109;-71
2022/04/13 03:42:39;;;;;;;12.40;4.93;;;9.60;59.70;;;;;;5029153;28;20728;-71
2022/04/13 03:45:14;;;;;;;7.63;4.18;;;9.60;59.40;;;;;;5030713;28;20037;-71
2022/04/13 03:47:41;;;;;;;7.68;4.38;;;9.60;59.90;;;;;;5028925;28;20025;-73
2022/04/13 03:50:08;;;;;;;8.02;4.30;;;9.60;59.90;;;;;;5022057;28;20048;-70
2022/04/13 03:52:34;;;;;;;8.85;4.15;;;9.60;60.20;;;;;;5029310;28;20104;-71
2022/04/13 03:55:03;;;;;;;8.23;4.55;;;9.60;60.20;;;;;;5030885;28;20116;-71
2022/04/13 03:57:29;;;;;;;13.75;4.43;;;9.50;60.20;;;;;;5029260;28;20045;-71
2022/04/13 03:59:55;;;;;;;13.43;5.20;;;9.40;60.90;;;;;;5029822;28;20408;-70
2022/04/13 04:02:20;;;;;;;12.02;5.80;;;9.40;61.30;;;;;;5029180;28;20067;-70
2022/04/13 04:04:46;;;;;;;7.70;4.68;;;9.40;61.20;;;;;;5030036;28;20046;-71
2022/04/13 04:07:11;;;;;;;13.02;4.97;;;9.40;61.00;;;;;;5019717;28;20595;-72
2022/04/13 04:09:37;;;;;;;9.30;4.80;;;9.30;61.10;;;;;;5030708;28;20029;-71
2022/04/13 04:12:02;;;;;;;10.65;5.28;;;9.30;61.50;;;;;;5030438;28;20032;-71
2022/04/13 04:14:28;;;;;;;10.70;4.82;;;9.30;61.30;;;;;;5029452;28;20167;-71
2022/04/13 04:16:53;;;;;;;9.43;4.82;;;9.20;61.60;;;;;;5030055;28;20037;-71
2022/04/13 04:19:19;;;;;;;10.13;4.88;;;9.20;61.70;;;;;;5028257;28;20034;-67
2022/04/13 04:21:44;;;;;;;9.13;4.63;;;9.10;62.00;;;;;;5021056;28;20030;-70
2022/04/13 04:24:10;;;;;;;10.23;5.38;;;9.10;62.20;;;;;;5026689;28;20029;-67
2022/04/13 04:26:36;;;;;;;8.73;4.90;;;9.00;62.70;;;;;;5030369;28;20044;-67
2022/04/13 04:29:01;;;;;;;9.35;4.60;;;9.00;62.80;;;;;;5030980;28;20411;-67
2022/04/13 04:34:11;;;;;;;8.15;4.63;;;8.90;63.20;;;;;;5021284;28;20029;-67
2022/04/13 04:36:36;;;;;;;11.48;4.68;;;8.90;63.40;;;;;;5034413;28;20034;-67
2022/04/13 04:39:02;;;;;;;8.52;5.13;;;8.80;63.80;;;;;;5034112;28;20044;-70
2022/04/13 04:41:28;;;;;;;10.32;4.53;;;8.80;63.90;;;;;;5022086;28;20034;-68
2022/04/13 04:43:53;;;;;;;8.60;4.93;;;8.80;64.20;;;;;;5034164;28;20447;-67
2022/04/13 04:46:19;;;;;;;11.40;5.30;;;8.70;64.50;;;;;;5034113;28;20124;-68
2022/04/13 04:48:45;;;;;;;8.30;4.80;;;8.70;64.30;;;;;;5033856;28;20033;-67
2022/04/13 04:51:11;;;;;;;9.98;4.75;;;8.80;64.30;;;;;;5033757;28;20395;-67
2022/04/13 04:53:37;;;;;;;12.05;5.05;;;8.70;64.50;;;;;;5033822;28;20037;-67
2022/04/13 04:56:04;;;;;;;12.65;5.38;;;8.80;64.60;;;;;;5034225;28;20472;-67
2022/04/13 04:58:29;;;;;;;8.80;4.90;;;8.70;64.50;;;;;;5031838;28;20041;-68
2022/04/13 05:00:55;;;;;;;10.90;5.15;;;8.80;64.70;;;;;;5030906;28;20022;-71
2022/04/13 05:03:20;;;;;;;9.48;5.05;;;8.80;64.60;;;;;;5033102;28;20042;-67
2022/04/13 05:05:46;;;;;;;8.75;5.15;;;8.80;64.40;;;;;;5023102;28;20473;-67
2022/04/13 05:08:13;;;;;;;11.30;5.25;;;8.80;64.50;;;;;;5033814;28;20610;-70
2022/04/13 05:10:39;;;;;;;10.98;5.18;;;8.80;64.80;;;;;;5033888;28;20026;-67
2022/04/13 05:13:05;;;;;;;10.27;5.13;;;8.90;64.50;;;;;;5033854;28;20034;-67
2022/04/13 05:15:31;;;;;;;10.60;5.38;;;9.00;64.30;;;;;;5020903;28;20213;-67
2022/04/13 05:17:56;;;;;;;9.05;5.30;;;9.00;64.10;;;;;;5030086;28;20041;-71
2022/04/13 05:20:22;;;;;;;10.50;5.45;;;9.10;64.00;;;;;;5032358;28;20481;-68
2022/04/13 05:22:47;;;;;;;9.43;5.30;;;9.10;63.90;;;;;;5027218;28;20040;-69
2022/04/13 05:25:17;;;;;;;10.95;5.75;;;9.10;63.70;;;;;;5033645;28;20119;-67
2022/04/13 05:27:44;;;;;;;10.50;5.75;;;9.20;63.80;;;;;;5033619;28;20068;-67
2022/04/13 05:30:11;;;;;;;12.02;5.70;;;9.20;63.60;;;;;;5033619;28;20025;-68
2022/04/13 05:32:57;;;;;;;8.52;4.95;;;9.30;63.70;;;;;;5032063;28;20158;-67
2022/04/13 05:35:24;;;;;;;8.40;4.95;;;9.30;63.50;;;;;;5032955;28;20025;-67
2022/04/13 05:37:50;;;;;;;10.68;4.75;;;9.40;63.50;;;;;;5033298;28;20025;-67
2022/04/13 05:40:16;;;;;;;10.43;5.95;;;9.50;63.20;;;;;;5027232;28;20388;-67
2022/04/13 05:42:41;;;;;;;9.48;4.90;;;9.50;63.50;;;;;;5033577;28;20025;-68
2022/04/13 05:45:08;;;;;;;10.88;5.47;;;9.60;63.20;;;;;;5019693;28;20037;-68
2022/04/13 05:47:34;;;;;;;9.88;5.65;;;9.60;63.10;;;;;;5032972;28;20380;-68
2022/04/13 05:50:00;;;;;;;12.50;5.68;;;9.70;63.40;;;;;;5028051;28;20484;-68
2022/04/13 05:52:26;;;;;;;14.35;6.35;;;9.70;63.30;;;;;;5032530;28;20107;-68
2022/04/13 05:54:51;;;;;;;9.23;5.55;;;9.80;63.30;;;;;;5033121;28;20496;-68
2022/04/13 05:57:17;;;;;;;12.52;5.25;;;9.90;63.30;;;;;;5032475;28;20037;-69
2022/04/13 05:59:42;;;;;;;9.02;4.88;;;10.00;62.30;;;;;;5032859;28;20105;-69
2022/04/13 06:02:08;;;;;;;10.55;5.15;;;10.10;62.60;;;;;;5031291;28;20025;-69
2022/04/13 06:04:33;;;;;;;9.23;5.03;;;10.10;61.80;;;;;;5032711;28;20039;-68
2022/04/13 06:07:00;;;;;;;11.32;5.07;;;10.20;62.80;;;;;;5021774;28;20476;-68
2022/04/13 06:09:26;;;;;;;9.68;5.72;;;10.20;61.90;;;;;;5032878;28;20021;-68
2022/04/13 06:11:51;;;;;;;9.60;5.22;;;10.30;61.90;;;;;;5032985;28;20120;-68
2022/04/13 06:14:17;;;;;;;13.10;5.80;;;10.30;62.40;;;;;;5029353;28;20029;-68
2022/04/13 06:16:43;;;;;;;9.93;5.22;;;10.40;62.80;;;;;;5032806;28;20460;-69
2022/04/13 06:19:09;;;;;;;10.77;5.00;;;10.50;62.10;;;;;;5031512;28;20392;-70
2022/04/13 06:21:35;;;;;;;9.65;4.70;;;10.50;61.80;;;;;;5032055;28;20037;-68
2022/04/13 06:24:01;;;;;;;9.45;5.80;;;10.60;62.10;;;;;;5026789;28;20487;-69
2022/04/13 06:26:26;;;;;;;11.40;5.55;;;10.70;62.10;;;;;;5031957;28;20540;-69
2022/04/13 06:28:52;;;;;;;10.77;5.53;;;10.80;62.40;;;;;;5032502;28;20037;-68
2022/04/13 06:31:18;;;;;;;9.90;4.93;;;10.80;62.00;;;;;;5020561;28;20373;-69
2022/04/13 06:33:44;;;;;;;9.88;5.65;;;10.90;62.10;;;;;;5032127;28;20065;-68
2022/04/13 06:36:10;;;;;;;9.02;5.45;;;10.90;61.70;;;;;;5030919;28;20076;-68
2022/04/13 06:38:40;;;;;;;11.98;5.13;;;11.00;61.80;;;;;;5032354;28;20025;-69
2022/04/13 06:41:08;;;;;;;9.27;5.38;;;11.00;61.80;;;;;;5031799;28;20032;-69
2022/04/13 06:43:34;;;;;;;11.50;5.47;;;11.10;62.00;;;;;;5031150;28;20051;-70
2022/04/13 06:45:59;;;;;;;10.13;4.85;;;11.10;61.30;;;;;;5031437;28;20038;-69
2022/04/13 06:48:25;;;;;;;10.70;5.85;;;11.20;61.20;;;;;;5030184;28;20088;-69
2022/04/13 06:50:50;;;;;;;10.23;5.30;;;11.40;61.40;;;;;;5031669;28;20385;-69
2022/04/13 06:53:17;;;;;;;9.52;5.25;;;11.40;61.30;;;;;;5031510;28;20065;-69
2022/04/13 06:55:44;;;;;;;11.73;5.47;;;11.70;60.70;;;;;;5031877;28;20029;-69
2022/04/13 06:58:09;;;;;;;9.13;5.35;;;12.00;60.80;;;;;;5029458;28;20037;-69
2022/04/13 07:00:35;;;;;;;9.90;5.15;;;12.10;59.70;;;;;;5031283;28;20033;-69
2022/04/13 07:03:00;;;;;;;10.40;5.03;;;12.30;60.00;;;;;;5030130;28;20021;-68
2022/04/13 07:05:26;;;;;;;9.85;5.15;;;12.40;59.20;;;;;;5022493;28;20041;-70
2022/04/13 07:07:52;;;;;;;13.73;5.57;;;12.50;59.40;;;;;;5031878;28;20116;-70
2022/04/13 07:10:18;;;;;;;10.32;5.07;;;12.70;59.20;;;;;;5031942;28;20116;-69
2022/04/13 07:12:43;;;;;;;10.05;5.15;;;12.90;58.60;;;;;;5031697;28;20025;-69
2022/04/13 07:15:09;;;;;;;10.35;5.10;;;12.90;57.00;;;;;;5026550;28;20038;-69
2022/04/13 07:17:35;;;;;;;10.75;5.38;;;13.10;58.00;;;;;;5029522;28;20037;-69
2022/04/13 07:20:01;;;;;;;8.43;4.53;;;13.30;57.50;;;;;;5030289;28;20104;-69
2022/04/13 07:22:26;;;;;;;7.93;4.70;;;13.60;57.10;;;;;;5018704;28;20033;-69
2022/04/13 07:24:52;;;;;;;12.32;5.18;;;13.80;55.10;;;;;;5031261;28;20033;-69
2022/04/13 07:27:18;;;;;;;11.07;5.22;;;14.00;55.60;;;;;;5031437;28;20466;-69
2022/04/13 07:29:43;;;;;;;8.63;4.95;;;14.00;54.70;;;;;;5030744;28;20080;-69
2022/04/13 07:32:09;;;;;;;10.05;5.38;;;14.00;54.60;;;;;;5028396;28;20040;-69
2022/04/13 07:34:36;;;;;;;8.35;4.43;;;14.20;55.50;;;;;;5031652;28;20372;-69
2022/04/13 07:37:03;;;;;;;8.82;4.40;;;14.30;54.40;;;;;;5031150;28;20083;-71
2022/04/13 07:39:28;;;;;;;10.40;5.10;;;14.60;54.80;;;;;;5024048;28;20095;-70
2022/04/13 07:41:54;;;;;;;9.05;5.45;;;14.90;53.70;;;;;;5029113;28;20038;-69
2022/04/13 07:44:19;;;;;;;11.18;5.20;;;15.00;53.00;;;;;;5030897;28;20050;-69
2022/04/13 07:46:45;;;;;;;8.32;4.85;;;15.10;51.90;;;;;;5030645;28;20087;-70
2022/04/13 07:49:10;;;;;;;10.43;4.90;;;15.50;52.90;;;;;;5013231;28;20030;-70
2022/04/13 07:51:39;;;;;;;10.68;4.88;;;15.60;51.60;;;;;;5030491;28;20029;-69
2022/04/13 07:54:05;;;;;;;8.20;4.70;;;15.50;51.80;;;;;;5031086;28;20052;-69
2022/04/13 07:56:31;;;;;;;7.65;4.35;;;15.80;51.30;;;;;;5020079;28;20037;-69
2022/04/13 07:58:56;;;;;;;10.35;4.85;;;16.10;52.50;;;;;;5030504;28;20096;-69
2022/04/13 08:01:22;;;;;;;9.60;5.43;;;15.70;52.00;;;;;;5030591;28;20121;-73
2022/04/13 08:03:47;;;;;;;11.15;5.20;;;15.60;51.70;;;;;;5030758;28;20038;-69
2022/04/13 08:06:13;;;;;;;10.70;4.45;;;15.70;53.60;;;;;;5029720;28;20041;-69
2022/04/13 08:08:39;;;;;;;10.05;5.15;;;15.70;52.70;;;;;;5030392;28;20400;-69
2022/04/13 08:11:05;;;;;;;10.20;4.65;;;15.80;52.50;;;;;;5031101;28;20029;-69
2022/04/13 08:13:32;;;;;;;10.18;4.90;;;16.10;53.40;;;;;;5024657;28;20488;-69
2022/04/13 08:15:57;;;;;;;8.50;4.72;;;16.40;54.20;;;;;;5030706;28;20472;-69
2022/04/13 08:18:23;;;;;;;9.45;4.65;;;16.60;53.30;;;;;;5030212;28;20033;-72
2022/04/13 08:20:49;;;;;;;7.57;4.57;;;16.80;52.00;;;;;;5029427;28;20041;-69
2022/04/13 08:23:15;;;;;;;8.65;4.60;;;16.70;51.00;;;;;;5029771;28;20465;-71
2022/04/13 08:25:41;;;;;;;10.60;5.03;;;16.90;51.80;;;;;;5030531;28;20093;-69
2022/04/13 08:28:06;;;;;;;9.95;5.15;;;17.00;50.30;;;;;;5029313;28;20457;-69
2022/04/13 08:30:32;;;;;;;8.75;4.20;;;17.50;51.00;;;;;;5018426;28;20056;-70
2022/04/13 08:32:58;;;;;;;8.82;4.78;;;17.60;50.50;;;;;;5030499;28;20033;-69
2022/04/13 08:35:23;;;;;;;10.25;4.70;;;17.30;50.00;;;;;;5030128;28;20041;-69
2022/04/13 08:37:49;;;;;;;6.85;4.20;;;16.90;51.00;;;;;;5029868;28;20100;-69
2022/04/13 08:40:16;;;;;;;8.65;5.20;;;16.90;52.40;;;;;;5023870;28;20285;-69
2022/04/13 08:43:06;;;;;;;8.77;5.05;;;17.00;51.70;;;;;;5029928;28;20061;-69
2022/04/13 08:45:39;;;;;;;9.27;4.57;;;17.00;51.90;;;;;;5028759;28;20042;-70
2022/04/13 08:48:06;;;;;;;8.73;4.63;;;17.00;52.80;;;;;;5023291;28;20033;-69
2022/04/13 08:50:32;;;;;;;8.02;4.93;;;17.00;52.40;;;;;;5029817;28;20033;-69
2022/04/13 08:52:59;;;;;;;7.53;4.50;;;16.80;53.30;;;;;;5031033;28;20131;-70
2022/04/13 08:55:28;;;;;;;9.30;5.07;;;17.00;53.10;;;;;;5026514;28;20112;-69
2022/04/13 08:58:11;;;;;;;9.55;4.47;;;17.00;52.60;;;;;;5030535;28;20025;-69
2022/04/13 09:00:45;;;;;;;12.65;4.97;;;17.30;52.80;;;;;;5029933;28;20026;-69
2022/04/13 09:03:21;;;;;;;9.18;4.65;;;17.10;52.40;;;;;;5029659;28;20056;-69
2022/04/13 09:05:51;;;;;;;8.80;4.85;;;17.30;52.70;;;;;;5029115;28;20057;-69
2022/04/13 09:08:22;;;;;;;9.30;5.32;;;17.50;52.40;;;;;;5030485;28;20061;-69
2022/04/13 09:10:49;;;;;;;11.68;5.38;;;17.60;52.20;;;;;;5030568;28;20381;-69
2022/04/13 09:13:16;;;;;;;11.85;5.47;;;17.60;52.50;;;;;;5023853;28;20065;-69
2022/04/13 09:15:43;;;;;;;9.20;4.47;;;17.70;52.90;;;;;;5029816;28;20220;-69
2022/04/13 09:18:10;;;;;;;8.77;5.10;;;17.70;53.60;;;;;;5028323;28;20179;-69
2022/04/13 09:20:37;;;;;;;8.02;4.95;;;17.60;52.60;;;;;;5020483;28;20026;-69
2022/04/13 09:23:03;;;;;;;10.30;5.28;;;17.80;53.10;;;;;;5033347;28;20349;-69
2022/04/13 09:25:33;;;;;;;10.55;5.30;;;17.80;52.30;;;;;;5033706;28;20111;-69
2022/04/13 09:28:00;;;;;;;13.00;5.40;;;17.90;52.40;;;;;;5033854;28;20029;-69
2022/04/13 09:30:27;;;;;;;13.48;5.55;;;18.30;52.60;;;;;;5032756;28;20294;-70
2022/04/13 09:32:53;;;;;;;9.77;5.00;;;18.00;51.10;;;;;;5033102;28;20026;-69
2022/04/13 09:35:20;;;;;;;13.93;5.15;;;18.30;51.40;;;;;;5033497;28;20086;-69
2022/04/13 09:37:46;;;;;;;10.48;5.28;;;18.50;52.10;;;;;;5027748;28;20021;-69
2022/04/13 09:40:33;;;;;;;11.32;5.82;;;18.50;50.80;;;;;;5029342;28;20423;-70
2022/04/13 09:43:19;;;;;;;14.00;5.88;;;18.80;51.90;;;;;;5032557;28;20042;-70
2022/04/13 09:45:50;;;;;;;12.35;5.80;;;19.00;51.10;;;;;;5033228;28;20025;-69
2022/04/13 09:48:26;;;;;;;12.80;6.07;;;18.90;50.90;;;;;;5031781;28;20026;-69
2022/04/13 09:50:52;;;;;;;9.85;5.80;;;19.00;50.40;;;;;;5025335;28;20479;-70
2022/04/13 09:53:21;;;;;;;11.63;5.65;;;19.30;50.40;;;;;;5032904;28;20112;-69
2022/04/13 09:55:59;;;;;;;10.35;6.00;;;19.00;49.90;;;;;;5024376;28;20037;-69
2022/04/13 09:58:26;;;;;;;14.25;6.22;;;19.00;50.60;;;;;;5032010;28;20167;-69
2022/04/13 10:00:53;;;;;;;12.95;6.07;;;19.00;50.70;;;;;;5032776;28;20029;-72
2022/04/13 10:03:21;;;;;;;13.63;6.60;;;19.20;50.50;;;;;;5028478;28;20388;-69
2022/04/13 10:05:50;;;;;;;12.90;6.07;;;19.30;50.40;;;;;;5025712;28;20029;-70
2022/04/13 10:08:22;;;;;;;15.07;6.47;;;19.50;50.10;;;;;;5032487;28;20095;-70
2022/04/13 10:10:48;;;;;;;16.70;6.75;;;19.80;50.70;;;;;;5029432;28;20437;-69
2022/04/13 10:13:32;;;;;;;13.50;6.97;;;20.00;50.50;;;;;;5025457;28;20029;-70
2022/04/13 10:16:00;;;;;;;12.05;6.97;;;19.90;49.20;;;;;;5032505;28;20052;-70
2022/04/13 10:18:27;;;;;;;15.02;7.00;;;20.00;49.00;;;;;;5030455;28;20068;-70
2022/04/13 10:20:53;;;;;;;15.05;7.15;;;20.00;49.20;;;;;;5025571;28;20524;-69
2022/04/13 10:23:19;;;;;;;11.73;6.82;;;19.90;49.50;;;;;;5032872;28;20123;-69
2022/04/13 10:25:44;;;;;;;13.73;6.93;;;20.00;49.60;;;;;;5032549;28;20492;-69
2022/04/13 10:28:13;;;;;;;16.88;7.82;;;20.20;49.50;;;;;;5032041;28;20030;-69
2022/04/13 10:30:42;;;;;;;14.80;8.05;;;20.40;49.90;;;;;;5032137;28;20033;-70
2022/04/13 10:33:12;;;;;;;20.73;8.65;;;20.40;49.30;;;;;;5031628;28;20075;-69
2022/04/13 10:35:40;;;;;;;18.15;8.98;;;20.20;49.60;;;;;;5032096;28;20029;-70
2022/04/13 10:38:06;;;;;;;18.17;8.68;;;20.50;49.00;;;;;;5029299;28;20519;-69
2022/04/13 10:40:40;;;;;;;19.13;9.93;;;20.60;48.80;;;;;;5032240;28;20117;-71
2022/04/13 10:43:07;;;;;;;19.40;10.43;;;20.60;48.50;;;;;;5029914;28;20037;-70
2022/04/13 10:45:34;;;;;;;20.20;9.85;;;20.70;48.20;;;;;;5029809;28;20049;-70
2022/04/13 10:48:05;;;;;;;21.73;10.48;;;20.80;48.70;;;;;;5031315;28;20037;-70
2022/04/13 10:50:49;;;;;;;18.58;9.10;;;21.20;48.20;;;;;;5020852;28;20461;-70
2022/04/13 10:53:15;;;;;;;19.38;9.43;;;21.50;49.00;;;;;;5031772;28;20461;-70
2022/04/13 10:55:42;;;;;;;20.05;10.93;;;21.40;48.40;;;;;;5027206;28;20044;-70
2022/04/13 10:58:18;;;;;;;22.55;10.32;;;21.20;47.80;;;;;;5031669;28;20104;-70
2022/04/13 11:00:46;;;;;;;15.02;9.05;;;21.40;46.90;;;;;;5031549;28;20079;-70
2022/04/13 11:03:12;;;;;;;23.13;9.90;;;21.50;48.70;;;;;;5024179;28;20453;-70
2022/04/13 11:05:40;;;;;;;20.35;9.40;;;21.70;48.50;;;;;;5031638;28;20072;-70
2022/04/13 11:08:08;;;;;;;18.90;8.38;;;21.80;47.20;;;;;;5031612;28;20089;-70
2022/04/13 11:10:35;;;;;;;16.55;8.82;;;21.70;46.40;;;;;;5029867;28;20124;-71
2022/04/13 11:13:01;;;;;;;19.52;9.48;;;21.60;47.20;;;;;;5020044;28;20419;-71
2022/04/13 11:15:46;;;;;;;15.45;8.32;;;21.80;48.30;;;;;;5031661;28;20064;-70
2022/04/13 11:18:16;;;;;;;18.92;9.32;;;21.90;47.30;;;;;;5030610;28;20035;-68
2022/04/13 11:21:02;;;;;;;15.25;8.82;;;21.70;46.70;;;;;;5026708;28;20022;-68
2022/04/13 11:23:48;;;;;;;15.75;8.93;;;21.70;45.90;;;;;;5031680;28;20037;-68
2022/04/13 11:26:14;;;;;;;18.27;9.50;;;22.00;45.60;;;;;;5031024;28;20120;-68
2022/04/13 11:28:39;;;;;;;19.30;8.93;;;22.00;47.00;;;;;;5024519;28;20169;-68
2022/04/13 11:31:10;;;;;;;20.38;10.07;;;22.30;46.10;;;;;;5030849;28;20025;-68
2022/04/13 11:33:50;;;;;;;21.63;9.57;;;22.80;45.60;;;;;;5030934;28;20491;-68
2022/04/13 11:36:20;;;;;;;20.90;9.68;;;23.10;44.80;;;;;;5012041;28;20034;-68
2022/04/13 11:38:50;;;;;;;20.08;8.65;;;23.50;43.50;;;;;;5025382;28;20022;-68
2022/04/13 11:41:16;;;;;;;18.63;8.25;;;23.40;44.20;;;;;;5031198;28;20029;-68
2022/04/13 11:43:41;;;;;;;18.17;8.40;;;22.90;46.80;;;;;;5030413;28;20400;-70
2022/04/13 11:46:11;;;;;;;19.08;8.35;;;23.50;46.20;;;;;;5020209;28;20029;-68
2022/04/13 11:48:37;;;;;;;20.13;8.23;;;23.30;45.40;;;;;;5029099;28;20112;-68
2022/04/13 11:51:32;;;;;;;18.17;7.47;;;23.20;46.60;;;;;;5025578;28;20429;-68
2022/04/13 11:54:11;;;;;;;18.85;7.85;;;23.20;45.40;;;;;;5028671;28;20040;-68
2022/04/13 11:56:41;;;;;;;18.38;7.75;;;23.00;44.60;;;;;;5030879;28;20033;-68
2022/04/13 11:59:07;;;;;;;15.05;7.57;;;23.30;44.50;;;;;;5031297;28;20481;-68
2022/04/13 12:01:35;;;;;;;17.67;8.63;;;23.30;44.10;;;;;;5028760;28;20026;-68
2022/04/13 12:04:05;;;;;;;13.65;7.53;;;23.00;45.00;;;;;;5025101;28;20381;-68
2022/04/13 12:06:31;;;;;;;13.88;7.85;;;23.40;44.90;;;;;;5029127;28;20112;-68
2022/04/13 12:09:01;;;;;;;16.67;7.80;;;23.70;43.50;;;;;;5030690;28;20025;-68
2022/04/13 12:11:43;;;;;;;14.75;6.93;;;24.00;43.50;;;;;;5029506;28;20040;-70
2022/04/13 12:14:10;;;;;;;18.40;8.07;;;23.90;43.80;;;;;;5030742;28;20030;-68
2022/04/13 12:16:41;;;;;;;14.40;7.30;;;24.00;43.50;;;;;;5030749;28;20028;-68
2022/04/13 12:19:11;;;;;;;15.98;6.68;;;24.20;43.50;;;;;;5013734;28;20367;-68
2022/04/13 12:21:39;;;;;;;15.85;7.50;;;24.00;44.10;;;;;;5028252;28;20125;-68
2022/04/13 12:24:09;;;;;;;15.43;7.15;;;24.00;42.90;;;;;;5029245;28;20447;-72
2022/04/13 12:26:37;;;;;;;15.15;7.32;;;24.40;42.60;;;;;;5028523;28;20457;-69
2022/04/13 12:29:20;;;;;;;17.48;8.07;;;24.50;42.10;;;;;;5029571;28;20033;-69
2022/04/13 12:31:49;;;;;;;13.93;7.05;;;24.60;43.60;;;;;;5029185;28;20040;-68
2022/04/13 12:34:22;;;;;;;15.05;7.53;;;24.90;43.40;;;;;;5030482;28;20107;-69
2022/04/13 12:36:54;;;;;;;12.55;6.72;;;24.80;41.90;;;;;;5025578;28;20084;-69
2022/04/13 12:39:41;;;;;;;16.83;6.75;;;24.20;43.40;;;;;;5030284;28;20033;-69
2022/04/13 12:42:07;;;;;;;16.30;6.85;;;25.10;42.60;;;;;;5030750;28;20030;-69
2022/04/13 12:44:33;;;;;;;13.90;7.07;;;24.40;43.30;;;;;;5020869;28;20107;-69
2022/04/13 12:47:06;;;;;;;15.85;6.75;;;24.70;42.40;;;;;;5027671;28;20040;-69